createdAt,value
2023-02-18T00:04:47.084Z,101137.47
2023-02-18T00:12:20.930Z,101142.59
2023-02-18T00:19:57.152Z,101145.22
2023-02-18T00:35:24.041Z,101163.34
2023-02-18T00:42:57.957Z,101159.44
2023-02-18T00:50:33.189Z,101179.66
2023-02-18T00:58:07.137Z,101177.59
2023-02-18T01:05:43.709Z,101178.28
2023-02-18T01:13:18.279Z,101170.84
2023-02-18T01:20:53.615Z,101178.75
2023-02-18T01:28:28.098Z,101168.84
2023-02-18T01:36:03.740Z,101155.47
2023-02-18T01:43:38.806Z,101165.97
2023-02-18T01:51:18.378Z,101169.41
2023-02-18T01:58:55.879Z,101174.66
2023-02-18T02:06:31.496Z,101175.47
2023-02-18T02:14:18.350Z,101177.09
2023-02-18T02:22:30.838Z,101173.44
2023-02-18T02:30:40.590Z,101185.91
2023-02-18T02:38:25.480Z,101186.78
2023-02-18T02:46:03.743Z,101167.22
2023-02-18T02:53:42.714Z,101175.13
2023-02-18T03:01:29.011Z,101189.31
2023-02-18T03:09:11.108Z,101168.72
2023-02-18T03:16:50.290Z,101177.47
2023-02-18T03:24:29.656Z,101189.78
2023-02-18T03:32:07.976Z,101181.69
2023-02-18T03:39:49.963Z,101192.31
2023-02-18T03:47:24.730Z,101178.16
2023-02-18T03:55:00.138Z,101196.63
2023-02-18T04:02:34.762Z,101181.41
2023-02-18T04:10:11.258Z,101190.94
2023-02-18T04:17:45.442Z,101197.06
2023-02-18T04:25:20.953Z,101188.84
2023-02-18T04:32:54.768Z,101180.84
2023-02-18T04:40:31.154Z,101193.13
2023-02-18T04:48:05.813Z,101194.09
2023-02-18T04:55:41.090Z,101191.69
2023-02-18T05:03:15.264Z,101199.91
2023-02-18T05:10:51.367Z,101191.25
2023-02-18T05:18:25.547Z,101194.97
2023-02-18T05:26:00.935Z,101185.31
2023-02-18T05:33:35.017Z,101183.81
2023-02-18T05:41:10.744Z,101183.88
2023-02-18T05:48:44.688Z,101166.19
2023-02-18T05:56:20.128Z,101170.75
2023-02-18T06:11:46.714Z,101169.88
2023-02-18T06:19:20.743Z,101171.03
2023-02-18T06:26:57.206Z,101168.50
2023-02-18T06:34:31.147Z,101165.03
2023-02-18T06:42:06.725Z,101173.09
2023-02-18T06:49:40.877Z,101165.47
2023-02-18T06:57:16.210Z,101152.50
2023-02-18T07:04:50.338Z,101165.25
2023-02-18T07:12:25.831Z,101166.41
2023-02-18T07:20:01.185Z,101165.50
2023-02-18T07:27:36.447Z,101162.69
2023-02-18T07:35:12.236Z,101159.75
2023-02-18T07:42:47.426Z,101138.13
2023-02-18T07:50:21.572Z,101125.50
2023-02-18T07:58:01.172Z,101112.84
2023-02-18T08:05:34.969Z,101106.38
2023-02-18T08:13:10.570Z,101096.50
2023-02-18T08:20:44.475Z,101074.25
2023-02-18T08:28:20.337Z,101066.19
2023-02-18T08:35:56.522Z,101047.59
2023-02-18T08:43:31.886Z,101030.13
2023-02-18T08:51:14.184Z,101022.22
2023-02-18T08:58:49.477Z,101021.41
2023-02-18T09:06:23.467Z,101009.06
2023-02-18T09:13:58.960Z,100984.38
2023-02-18T09:21:33.285Z,100962.16
2023-02-18T09:29:09.849Z,100963.09
2023-02-18T09:36:43.751Z,100941.03
2023-02-18T09:44:24.301Z,100927.94
2023-02-18T09:52:03.199Z,100908.59
2023-02-18T09:59:38.690Z,100880.28
2023-02-18T10:07:21.042Z,100866.25
2023-02-18T10:14:58.666Z,100864.53
2023-02-18T10:22:32.649Z,100838.91
2023-02-18T10:30:24.508Z,100815.13
2023-02-18T10:46:18.200Z,100758.75
2023-02-18T10:53:54.389Z,100733.13
2023-02-18T11:01:31.725Z,100714.63
2023-02-18T11:09:07.338Z,100679.34
2023-02-18T11:16:45.044Z,100651.13
2023-02-18T11:24:21.622Z,100626.47
2023-02-18T11:31:59.489Z,100613.31
2023-02-18T11:39:33.547Z,100594.97
2023-02-18T11:47:22.684Z,100578.34
2023-02-18T11:55:04.526Z,100560.00
2023-02-18T12:02:42.958Z,100522.19
2023-02-18T12:10:24.410Z,100501.50
2023-02-18T12:18:19.802Z,100491.38
2023-02-18T12:26:02.928Z,100465.47
2023-02-18T12:33:53.031Z,100463.91
2023-02-18T12:41:40.504Z,100448.44
2023-02-18T12:49:46.634Z,100445.34
2023-02-18T12:57:31.075Z,100435.03
2023-02-18T13:05:19.845Z,100413.84
2023-02-18T13:12:59.292Z,100396.25
2023-02-18T13:28:39.532Z,100392.13
2023-02-18T13:36:34.537Z,100387.75
2023-02-18T13:44:10.371Z,100394.03
2023-02-18T13:51:48.924Z,100384.25
2023-02-18T13:59:30.584Z,100393.13
2023-02-18T14:07:41.666Z,100382.44
2023-02-18T14:15:58.177Z,100403.72
2023-02-18T14:23:57.667Z,100400.13
2023-02-18T14:31:45.624Z,100412.56
2023-02-18T14:39:37.388Z,100407.25
2023-02-18T14:47:27.336Z,100409.91
2023-02-18T14:55:05.511Z,100405.34
2023-02-18T15:02:40.566Z,100406.22
2023-02-18T15:10:18.893Z,100415.13
2023-02-18T15:25:51.688Z,100451.63
2023-02-18T15:33:25.793Z,100458.72
2023-02-18T15:41:02.715Z,100475.56
2023-02-18T15:48:44.974Z,100492.41
2023-02-18T15:56:27.358Z,100502.25
2023-02-18T16:11:59.483Z,100535.97
2023-02-18T16:19:34.130Z,100548.34
2023-02-18T16:27:17.375Z,100556.28
2023-02-18T16:34:51.301Z,100574.97
2023-02-18T16:42:26.883Z,100587.38
2023-02-18T16:50:01.088Z,100588.38
2023-02-18T16:57:36.435Z,100619.50
2023-02-18T17:05:25.817Z,100631.03
2023-02-18T17:13:02.037Z,100657.56
2023-02-18T17:20:35.936Z,100690.28
2023-02-18T17:28:11.268Z,100757.13
2023-02-18T17:43:38.441Z,100805.59
2023-02-18T17:51:23.249Z,100800.50
2023-02-18T17:58:58.640Z,100822.44
2023-02-18T18:06:36.138Z,100836.53
2023-02-18T18:14:14.725Z,100836.28
2023-02-18T18:21:49.154Z,100850.19
2023-02-18T18:29:24.439Z,100872.25
2023-02-18T18:36:58.314Z,100891.63
2023-02-18T18:44:33.516Z,100908.22
2023-02-18T18:52:07.480Z,100920.31
2023-02-18T18:59:42.821Z,100926.56
2023-02-18T19:07:16.717Z,100935.38
2023-02-18T19:22:43.669Z,100938.00
2023-02-18T19:30:22.976Z,100941.44
2023-02-18T19:37:57.467Z,100960.81
2023-02-18T19:45:33.012Z,100969.50
2023-02-18T19:53:07.043Z,100967.25
2023-02-18T20:00:43.816Z,100979.53
2023-02-18T20:08:17.922Z,100973.06
2023-02-18T20:15:53.308Z,100970.44
2023-02-18T20:23:27.227Z,100989.91
2023-02-18T20:31:07.406Z,100979.28
2023-02-18T20:38:41.506Z,100980.13
2023-02-18T20:46:18.945Z,100999.56
2023-02-18T20:53:53.069Z,101009.09
2023-02-18T21:09:20.057Z,101013.00
2023-02-18T21:16:55.184Z,101019.75
2023-02-18T21:24:28.982Z,101028.03
2023-02-18T21:32:04.477Z,101034.94
2023-02-18T21:39:38.687Z,101036.69
2023-02-18T21:47:14.189Z,101042.16
2023-02-18T21:54:49.040Z,101037.00
2023-02-18T22:02:25.669Z,101040.34
2023-02-18T22:09:59.635Z,101046.53
2023-02-18T22:17:35.110Z,101059.63
2023-02-18T22:25:09.667Z,101057.97
2023-02-18T22:32:45.053Z,101070.44
2023-02-18T22:40:19.221Z,101065.81
2023-02-18T22:47:54.647Z,101061.31
2023-02-18T22:55:28.924Z,101048.09
2023-02-18T23:03:04.254Z,101050.69
2023-02-18T23:10:38.241Z,101053.41
2023-02-18T23:18:13.526Z,101052.44
2023-02-18T23:25:47.404Z,101051.34
2023-02-18T23:33:22.880Z,101044.09
2023-02-18T23:40:56.770Z,101044.78
2023-02-18T23:48:32.094Z,101032.28
2023-02-18T23:56:08.430Z,101041.09
